Terminal Aerodrome Forecast
Issued by NWS

Home | Current Version | Previous Version | Graphics & Text | Print | Product List | Glossary On
Versions: 1 2 3 4 5 6 7 8 9 10 11 12 13 14 15 16 17 18 19 20 21
000
FTUS43 KMPX 170902 AAB
TAFAXN
TAF AMD
KAXN 170902Z 1709/1806 VRB03KT 3SM BR OVC004
     FM171030 00000KT 1/4SM FZFG VV002
     FM171600 21005KT 2SM BR OVC007
     FM172000 22006KT P6SM BKN010
     FM172300 20007KT P6SM SCT012=

USA.gov is the U.S. government's official web portal to all federal, state and local government web resources and services.